createdAt,value
2019-06-26T00:00:36.476Z,71.30
2019-06-26T00:03:06.777Z,70.70
2019-06-26T00:05:37.213Z,71.00
2019-06-26T00:08:07.878Z,71.00
2019-06-26T00:10:38.670Z,70.90
2019-06-26T00:13:24.865Z,70.70
2019-06-26T00:15:41.586Z,70.80
2019-06-26T00:18:11.725Z,70.70
2019-06-26T00:20:42.347Z,71.20
2019-06-26T00:23:12.568Z,70.90
2019-06-26T00:25:42.891Z,70.80
2019-06-26T00:28:13.847Z,70.40
2019-06-26T00:30:44.893Z,70.90
2019-06-26T00:33:15.585Z,71.00
2019-06-26T00:35:46.361Z,70.90
2019-06-26T00:38:17.097Z,70.50
2019-06-26T00:40:47.792Z,70.80
2019-06-26T00:43:17.759Z,71.00
2019-06-26T00:45:48.603Z,70.60
2019-06-26T00:48:19.615Z,70.30
2019-06-26T00:50:50.581Z,70.30
2019-06-26T00:53:21.583Z,70.60
2019-06-26T00:55:55.047Z,69.90
2019-06-26T00:58:23.649Z,70.00
2019-06-26T01:00:53.953Z,69.90
2019-06-26T01:03:24.670Z,69.80
2019-06-26T01:05:55.093Z,70.10
2019-06-26T01:08:25.887Z,70.10
2019-06-26T01:10:56.651Z,70.00
2019-06-26T01:13:27.386Z,69.80
2019-06-26T01:15:58.050Z,69.40
2019-06-26T01:18:28.396Z,69.50
2019-06-26T01:20:58.673Z,69.60
2019-06-26T01:23:29.267Z,69.50
2019-06-26T01:25:59.918Z,69.70
2019-06-26T01:28:31.952Z,69.50
2019-06-26T01:31:02.826Z,69.40
2019-06-26T01:33:33.334Z,69.40
2019-06-26T01:36:04.056Z,69.30
2019-06-26T01:38:34.392Z,69.40
2019-06-26T01:41:04.707Z,69.40
2019-06-26T01:43:35.630Z,69.40
2019-06-26T01:46:05.852Z,69.30
2019-06-26T01:48:36.396Z,69.10
2019-06-26T01:51:07.370Z,69.20
2019-06-26T01:53:37.817Z,69.10
2019-06-26T01:56:08.076Z,69.00
2019-06-26T01:58:38.418Z,68.90
2019-06-26T02:01:09.195Z,68.90
2019-06-26T02:03:39.846Z,68.90
2019-06-26T02:06:10.682Z,68.90
2019-06-26T02:08:41.487Z,68.80
2019-06-26T02:11:12.384Z,68.70
2019-06-26T02:13:43.192Z,68.80
2019-06-26T02:16:13.610Z,68.70
2019-06-26T02:18:45.041Z,68.70
2019-06-26T02:21:15.305Z,68.50
2019-06-26T02:23:45.770Z,68.50
2019-06-26T02:26:17.863Z,68.20
2019-06-26T02:28:47.977Z,68.00
2019-06-26T02:31:18.613Z,67.80
2019-06-26T02:33:49.046Z,67.60
2019-06-26T02:36:19.711Z,67.50
2019-06-26T02:38:50.006Z,67.30
2019-06-26T02:41:19.787Z,67.40
2019-06-26T02:43:50.440Z,67.20
2019-06-26T02:46:20.466Z,67.20
2019-06-26T02:48:50.990Z,67.00
2019-06-26T02:51:23.922Z,67.10
2019-06-26T02:53:54.426Z,67.00
2019-06-26T02:56:25.307Z,66.90
2019-06-26T02:58:56.266Z,66.80
2019-06-26T03:01:27.139Z,66.70
2019-06-26T03:03:57.840Z,66.60
2019-06-26T03:06:29.421Z,66.50
2019-06-26T03:09:00.066Z,66.40
2019-06-26T03:11:30.569Z,66.60
2019-06-26T03:14:00.807Z,66.50
2019-06-26T03:16:31.396Z,66.40
2019-06-26T03:19:01.547Z,65.80
2019-06-26T03:21:32.324Z,66.10
2019-06-26T03:24:05.955Z,66.00
2019-06-26T03:26:36.911Z,65.80
2019-06-26T03:29:07.830Z,65.60
2019-06-26T03:31:40.192Z,66.40
2019-06-26T03:34:11.086Z,65.60
2019-06-26T03:36:41.420Z,65.10
2019-06-26T03:39:12.267Z,65.10
2019-06-26T03:41:43.136Z,64.90
2019-06-26T03:44:13.227Z,64.50
2019-06-26T03:46:43.948Z,64.30
2019-06-26T03:49:14.025Z,63.80
2019-06-26T03:51:47.122Z,64.20
2019-06-26T03:54:17.554Z,63.70
2019-06-26T03:56:48.339Z,64.00
2019-06-26T03:59:19.129Z,64.20
2019-06-26T04:01:49.367Z,64.40
2019-06-26T04:04:19.611Z,63.70
2019-06-26T04:06:50.427Z,63.50
2019-06-26T04:09:20.729Z,63.40
2019-06-26T04:11:51.642Z,62.50
2019-06-26T04:14:22.543Z,62.80
2019-06-26T04:16:53.168Z,62.40
2019-06-26T04:19:24.101Z,63.00
2019-06-26T04:21:54.731Z,62.30
2019-06-26T04:24:24.658Z,61.80
2019-06-26T04:26:55.538Z,62.50
2019-06-26T04:29:25.755Z,61.10
2019-06-26T04:31:56.163Z,61.90
2019-06-26T04:34:26.866Z,61.20
2019-06-26T04:36:56.782Z,61.90
2019-06-26T04:39:28.083Z,61.70
2019-06-26T04:41:58.672Z,60.70
2019-06-26T04:44:29.450Z,60.40
2019-06-26T04:46:59.779Z,60.90
2019-06-26T04:49:29.916Z,60.60
2019-06-26T04:52:00.043Z,60.90
2019-06-26T04:54:30.770Z,61.20
2019-06-26T04:57:01.059Z,59.80
2019-06-26T04:59:31.825Z,60.30
2019-06-26T05:02:01.710Z,61.50
2019-06-26T05:04:32.547Z,61.20
2019-06-26T05:07:03.416Z,60.40
2019-06-26T05:09:34.247Z,60.80
2019-06-26T05:12:04.077Z,59.80
2019-06-26T05:14:34.869Z,60.40
2019-06-26T05:17:05.271Z,60.20
2019-06-26T05:19:36.028Z,60.10
2019-06-26T05:22:06.816Z,60.10
2019-06-26T05:24:37.463Z,59.50
2019-06-26T05:27:08.249Z,59.70
2019-06-26T05:29:38.911Z,59.90
2019-06-26T05:32:09.570Z,60.60
2019-06-26T05:34:39.998Z,60.10
2019-06-26T05:37:10.838Z,60.50
2019-06-26T05:39:41.435Z,60.50
2019-06-26T05:42:12.161Z,60.90
2019-06-26T05:44:42.218Z,60.80
2019-06-26T05:47:12.137Z,61.30
2019-06-26T05:49:42.848Z,61.30
2019-06-26T05:52:16.471Z,60.90
2019-06-26T05:54:44.684Z,61.40
2019-06-26T05:57:15.759Z,60.50
2019-06-26T05:59:46.669Z,60.80
2019-06-26T06:02:17.195Z,60.60
2019-06-26T06:04:47.480Z,61.10
2019-06-26T06:07:19.042Z,61.30
2019-06-26T06:09:50.378Z,60.80
2019-06-26T06:12:21.172Z,60.60
2019-06-26T06:14:51.881Z,59.60
2019-06-26T06:17:24.561Z,59.70
2019-06-26T06:19:55.436Z,59.70
2019-06-26T06:22:27.565Z,59.50
2019-06-26T06:24:57.931Z,59.70
2019-06-26T06:27:28.810Z,59.40
2019-06-26T06:29:58.960Z,59.90
2019-06-26T06:32:29.694Z,60.20
2019-06-26T06:35:00.633Z,59.20
2019-06-26T06:37:30.721Z,58.90
2019-06-26T06:40:00.937Z,59.60
2019-06-26T06:42:31.486Z,59.30
2019-06-26T06:45:03.102Z,58.90
2019-06-26T06:47:33.553Z,59.20
2019-06-26T06:50:04.287Z,60.00
2019-06-26T06:52:34.726Z,58.80
2019-06-26T06:55:05.451Z,59.10
2019-06-26T06:57:35.628Z,58.80
2019-06-26T07:00:06.957Z,59.00
2019-06-26T07:02:37.682Z,58.40
2019-06-26T07:05:08.040Z,58.40
2019-06-26T07:07:38.725Z,58.80
2019-06-26T07:10:09.083Z,58.60
2019-06-26T07:12:39.276Z,58.90
2019-06-26T07:15:09.722Z,58.50
2019-06-26T07:17:41.440Z,57.80
2019-06-26T07:20:11.964Z,57.90
2019-06-26T07:22:42.077Z,58.10
2019-06-26T07:25:12.038Z,57.70
2019-06-26T07:27:42.638Z,57.50
2019-06-26T07:30:13.518Z,57.00
2019-06-26T07:32:44.309Z,57.10
2019-06-26T07:35:14.242Z,57.00
2019-06-26T07:37:45.125Z,57.00
2019-06-26T07:40:15.774Z,57.70
2019-06-26T07:42:45.951Z,57.90
2019-06-26T07:45:16.070Z,57.10
2019-06-26T07:47:46.616Z,56.90
2019-06-26T07:50:17.500Z,57.30
2019-06-26T07:52:48.126Z,57.40
2019-06-26T07:55:18.472Z,57.50
2019-06-26T07:57:49.300Z,57.00
2019-06-26T08:00:19.982Z,57.00
2019-06-26T08:02:50.662Z,57.70
2019-06-26T08:05:21.569Z,57.20
2019-06-26T08:07:52.473Z,57.50
2019-06-26T08:10:22.976Z,56.80
2019-06-26T08:12:53.119Z,57.10
2019-06-26T08:15:23.635Z,56.40
2019-06-26T08:18:00.420Z,57.40
2019-06-26T08:20:25.642Z,57.20
2019-06-26T08:22:55.574Z,56.50
2019-06-26T08:25:26.251Z,56.40
2019-06-26T08:27:56.813Z,55.90
2019-06-26T08:30:27.463Z,56.40
2019-06-26T08:32:58.332Z,56.50
2019-06-26T08:35:29.152Z,57.50
2019-06-26T08:38:09.981Z,56.80
2019-06-26T08:40:31.044Z,56.60
2019-06-26T08:43:01.675Z,56.80
2019-06-26T08:45:32.623Z,56.60
2019-06-26T08:48:16.836Z,57.00
2019-06-26T08:50:35.247Z,56.10
2019-06-26T08:53:05.452Z,57.10
2019-06-26T08:55:35.568Z,54.80
2019-06-26T08:58:06.905Z,57.00
2019-06-26T09:00:37.651Z,56.60
2019-06-26T09:03:08.097Z,56.10
2019-06-26T09:05:47.900Z,56.20
2019-06-26T09:08:10.126Z,56.80
2019-06-26T09:10:44.559Z,56.70
2019-06-26T09:13:12.972Z,56.90
2019-06-26T09:15:43.210Z,56.70
2019-06-26T09:18:13.135Z,57.00
2019-06-26T09:20:43.399Z,57.50
2019-06-26T09:23:13.285Z,56.20
2019-06-26T09:25:44.045Z,56.00
2019-06-26T09:28:14.626Z,56.30
2019-06-26T09:30:45.346Z,57.80
2019-06-26T09:33:15.826Z,57.10
2019-06-26T09:35:46.320Z,56.80
2019-06-26T09:38:16.948Z,56.10
2019-06-26T09:40:47.376Z,56.80
2019-06-26T09:43:17.493Z,56.40
2019-06-26T09:45:48.394Z,56.70
2019-06-26T09:48:18.991Z,56.80
2019-06-26T09:50:49.298Z,56.00
2019-06-26T09:53:19.780Z,56.50
2019-06-26T09:55:50.242Z,56.20
2019-06-26T09:58:20.322Z,56.50
2019-06-26T10:00:50.750Z,56.40
2019-06-26T10:03:21.386Z,56.40
2019-06-26T10:05:52.568Z,56.50
2019-06-26T10:08:23.487Z,56.20
2019-06-26T10:10:54.401Z,56.30
2019-06-26T10:13:25.299Z,56.40
2019-06-26T10:15:55.399Z,56.40
2019-06-26T10:18:26.191Z,56.20
2019-06-26T10:20:56.695Z,56.60
2019-06-26T10:23:26.980Z,56.10
2019-06-26T10:25:57.681Z,56.60
2019-06-26T10:28:28.552Z,56.10
2019-06-26T10:30:59.285Z,55.50
2019-06-26T10:33:30.058Z,55.30
2019-06-26T10:36:00.263Z,56.10
2019-06-26T10:38:30.686Z,56.70
2019-06-26T10:41:01.419Z,56.10
2019-06-26T10:43:31.732Z,56.30
2019-06-26T10:46:02.406Z,56.50
2019-06-26T10:48:33.087Z,56.30
2019-06-26T10:51:05.522Z,56.30
2019-06-26T10:53:36.925Z,56.70
2019-06-26T10:56:08.060Z,56.20
2019-06-26T10:58:38.975Z,56.40
2019-06-26T11:01:09.671Z,56.50
2019-06-26T11:03:39.725Z,56.50
2019-06-26T11:06:10.493Z,56.50
2019-06-26T11:08:41.499Z,56.70
2019-06-26T11:11:11.626Z,56.60
2019-06-26T11:13:42.207Z,56.40
2019-06-26T11:16:13.217Z,56.30
2019-06-26T11:18:43.827Z,56.60
2019-06-26T11:21:14.313Z,55.50
2019-06-26T11:23:44.687Z,56.20
2019-06-26T11:26:14.995Z,56.20
2019-06-26T11:28:46.285Z,56.40
2019-06-26T11:31:16.295Z,56.50
2019-06-26T11:33:47.075Z,56.50
2019-06-26T11:36:17.861Z,56.50
2019-06-26T11:38:48.242Z,56.60
2019-06-26T11:41:19.027Z,56.90
2019-06-26T11:43:49.913Z,56.80
2019-06-26T11:46:20.080Z,56.40
2019-06-26T11:48:51.500Z,56.70
2019-06-26T11:51:21.926Z,56.90
2019-06-26T11:53:52.767Z,57.10
2019-06-26T11:56:23.573Z,56.90
2019-06-26T11:58:54.515Z,56.80
2019-06-26T12:01:25.197Z,56.80
2019-06-26T12:03:55.375Z,56.90
2019-06-26T12:06:26.224Z,57.00
2019-06-26T12:08:56.390Z,57.20
2019-06-26T12:11:26.760Z,57.30
2019-06-26T12:13:58.497Z,57.50
2019-06-26T12:16:29.087Z,57.40
2019-06-26T12:18:59.873Z,57.60
2019-06-26T12:21:30.735Z,57.40
2019-06-26T12:24:00.995Z,57.50
2019-06-26T12:26:31.291Z,57.40
2019-06-26T12:29:01.732Z,57.40
2019-06-26T12:31:31.824Z,57.40
2019-06-26T12:34:02.467Z,57.60
2019-06-26T12:36:33.523Z,57.50
2019-06-26T12:39:04.453Z,57.50
2019-06-26T12:41:35.393Z,57.30
2019-06-26T12:44:06.322Z,57.50
2019-06-26T12:46:37.446Z,57.50
2019-06-26T12:49:07.664Z,57.60
2019-06-26T12:51:37.773Z,57.60
2019-06-26T12:54:07.701Z,57.70
2019-06-26T12:56:37.999Z,57.90
2019-06-26T12:59:08.100Z,57.60
2019-06-26T13:01:38.712Z,57.80
2019-06-26T13:04:08.841Z,57.80
2019-06-26T13:06:39.581Z,57.70
2019-06-26T13:09:10.596Z,57.80
2019-06-26T13:11:41.797Z,57.70
2019-06-26T13:14:11.846Z,57.70
2019-06-26T13:16:42.216Z,57.70
2019-06-26T13:19:12.251Z,57.60
2019-06-26T13:21:43.177Z,57.70
2019-06-26T13:24:14.114Z,57.80
2019-06-26T13:26:44.916Z,57.90
2019-06-26T13:29:15.647Z,57.70
2019-06-26T13:31:46.980Z,57.70
2019-06-26T13:34:17.679Z,57.70
2019-06-26T13:36:48.218Z,57.60
2019-06-26T13:39:18.878Z,57.70
2019-06-26T13:41:51.160Z,57.60
2019-06-26T13:44:23.175Z,57.70
2019-06-26T13:46:54.103Z,57.70
2019-06-26T13:49:27.774Z,57.60
2019-06-26T13:51:58.340Z,57.50
2019-06-26T13:54:29.210Z,57.80
2019-06-26T13:57:00.063Z,57.80
2019-06-26T13:59:31.199Z,57.90
2019-06-26T14:02:02.122Z,57.80
2019-06-26T14:04:32.879Z,57.70
2019-06-26T14:07:03.452Z,57.80
2019-06-26T14:09:34.352Z,57.90
2019-06-26T14:12:04.882Z,58.10
2019-06-26T14:14:52.542Z,58.00
2019-06-26T14:17:07.234Z,58.00
2019-06-26T14:19:38.253Z,58.20
2019-06-26T14:22:08.594Z,58.30
2019-06-26T14:24:39.411Z,58.20
2019-06-26T14:27:10.200Z,58.20
2019-06-26T14:29:41.064Z,58.30
2019-06-26T14:32:11.371Z,58.30
2019-06-26T14:34:42.217Z,58.30
2019-06-26T14:37:12.793Z,58.40
2019-06-26T14:39:43.574Z,58.40
2019-06-26T14:42:14.335Z,58.30
2019-06-26T14:44:44.530Z,58.40
2019-06-26T14:47:15.169Z,58.50
2019-06-26T14:49:45.595Z,58.60
2019-06-26T14:52:15.919Z,58.50
2019-06-26T14:54:46.376Z,58.50
2019-06-26T14:57:17.243Z,58.50
2019-06-26T14:59:48.026Z,58.50
2019-06-26T15:02:18.556Z,58.50
2019-06-26T15:04:48.651Z,58.70
2019-06-26T15:07:18.655Z,58.70
2019-06-26T15:09:49.323Z,58.70
2019-06-26T15:12:20.219Z,58.70
2019-06-26T15:14:50.749Z,58.80
2019-06-26T15:17:20.792Z,58.80
2019-06-26T15:19:51.846Z,58.80
2019-06-26T15:22:22.520Z,58.90
2019-06-26T15:24:53.327Z,58.90
2019-06-26T15:27:23.523Z,58.90
2019-06-26T15:29:54.154Z,59.00
2019-06-26T15:32:24.574Z,59.10
2019-06-26T15:34:54.927Z,59.20
2019-06-26T15:37:26.028Z,59.10
2019-06-26T15:39:55.958Z,59.20
2019-06-26T15:42:26.312Z,59.30
2019-06-26T15:44:56.401Z,59.30
